sensor_id;sensor_type;location;lat;lon;timestamp;temperature;humidity
75010;DHT22;63564;46.840;18.336;2023-01-28T00:02:43;1.09;89.84
75010;DHT22;63564;46.840;18.336;2023-01-28T00:05:43;1.11;89.96
75010;DHT22;63564;46.840;18.336;2023-01-28T00:08:44;1.01;90.81
75010;DHT22;63564;46.840;18.336;2023-01-28T00:11:44;1.02;90.53
75010;DHT22;63564;46.840;18.336;2023-01-28T00:14:45;1.08;90.59
75010;DHT22;63564;46.840;18.336;2023-01-28T00:17:47;1.05;90.29
75010;DHT22;63564;46.840;18.336;2023-01-28T00:21:01;0.95;90.56
75010;DHT22;63564;46.840;18.336;2023-01-28T00:24:02;0.96;90.31
75010;DHT22;63564;46.840;18.336;2023-01-28T00:27:02;0.99;90.31
75010;DHT22;63564;46.840;18.336;2023-01-28T00:30:03;0.98;90.41
75010;DHT22;63564;46.840;18.336;2023-01-28T00:33:03;1.01;90.22
75010;DHT22;63564;46.840;18.336;2023-01-28T00:36:04;0.98;89.76
75010;DHT22;63564;46.840;18.336;2023-01-28T00:39:05;0.92;90.28
75010;DHT22;63564;46.840;18.336;2023-01-28T00:42:06;0.95;90.52
75010;DHT22;63564;46.840;18.336;2023-01-28T00:45:06;0.95;90.34
75010;DHT22;63564;46.840;18.336;2023-01-28T00:48:07;0.81;90.89
75010;DHT22;63564;46.840;18.336;2023-01-28T00:51:10;0.85;90.85
75010;DHT22;63564;46.840;18.336;2023-01-28T00:54:11;0.88;90.62
75010;DHT22;63564;46.840;18.336;2023-01-28T00:57:12;0.85;90.99
75010;DHT22;63564;46.840;18.336;2023-01-28T01:00:13;0.83;90.70
75010;DHT22;63564;46.840;18.336;2023-01-28T01:03:14;0.81;90.63
75010;DHT22;63564;46.840;18.336;2023-01-28T01:06:15;0.84;90.49
75010;DHT22;63564;46.840;18.336;2023-01-28T01:09:15;0.81;90.33
75010;DHT22;63564;46.840;18.336;2023-01-28T01:12:16;0.78;90.37
75010;DHT22;63564;46.840;18.336;2023-01-28T01:15:17;0.78;90.60
75010;DHT22;63564;46.840;18.336;2023-01-28T01:18:18;0.73;90.71
75010;DHT22;63564;46.840;18.336;2023-01-28T01:21:22;0.70;90.76
75010;DHT22;63564;46.840;18.336;2023-01-28T01:24:22;0.74;90.62
75010;DHT22;63564;46.840;18.336;2023-01-28T01:27:23;0.71;91.23
75010;DHT22;63564;46.840;18.336;2023-01-28T01:30:23;0.77;90.50
75010;DHT22;63564;46.840;18.336;2023-01-28T01:33:24;0.74;90.60
75010;DHT22;63564;46.840;18.336;2023-01-28T01:36:25;0.73;90.70
75010;DHT22;63564;46.840;18.336;2023-01-28T01:39:25;0.75;90.32
75010;DHT22;63564;46.840;18.336;2023-01-28T01:42:26;0.71;90.51
75010;DHT22;63564;46.840;18.336;2023-01-28T01:45:28;0.73;90.25
75010;DHT22;63564;46.840;18.336;2023-01-28T01:48:32;0.70;90.09
75010;DHT22;63564;46.840;18.336;2023-01-28T01:51:35;0.68;90.27
75010;DHT22;63564;46.840;18.336;2023-01-28T01:54:37;0.68;90.29
75010;DHT22;63564;46.840;18.336;2023-01-28T01:57:38;0.68;90.36
75010;DHT22;63564;46.840;18.336;2023-01-28T02:00:40;0.67;90.79
75010;DHT22;63564;46.840;18.336;2023-01-28T02:04:02;0.68;91.02
75010;DHT22;63564;46.840;18.336;2023-01-28T02:07:04;0.70;90.70
75010;DHT22;63564;46.840;18.336;2023-01-28T02:10:06;0.68;90.90
75010;DHT22;63564;46.840;18.336;2023-01-28T02:13:07;0.65;90.80
75010;DHT22;63564;46.840;18.336;2023-01-28T02:16:08;0.68;90.74
75010;DHT22;63564;46.840;18.336;2023-01-28T02:19:11;0.70;90.75
75010;DHT22;63564;46.840;18.336;2023-01-28T02:28:59;0.68;90.85
75010;DHT22;63564;46.840;18.336;2023-01-28T02:32:14;0.64;91.00
75010;DHT22;63564;46.840;18.336;2023-01-28T02:35:28;0.64;91.15
75010;DHT22;63564;46.840;18.336;2023-01-28T02:38:38;0.68;91.06
75010;DHT22;63564;46.840;18.336;2023-01-28T02:41:46;0.61;91.54
75010;DHT22;63564;46.840;18.336;2023-01-28T02:44:49;0.63;91.41
75010;DHT22;63564;46.840;18.336;2023-01-28T02:47:50;0.68;91.04
75010;DHT22;63564;46.840;18.336;2023-01-28T02:51:04;0.67;90.94
75010;DHT22;63564;46.840;18.336;2023-01-28T02:57:37;0.65;91.14
75010;DHT22;63564;46.840;18.336;2023-01-28T03:06:55;0.67;91.56
75010;DHT22;63564;46.840;18.336;2023-01-28T03:10:00;0.65;92.00
75010;DHT22;63564;46.840;18.336;2023-01-28T03:13:03;0.63;91.88
75010;DHT22;63564;46.840;18.336;2023-01-28T03:16:22;0.64;92.12
75010;DHT22;63564;46.840;18.336;2023-01-28T03:19:41;0.61;91.96
75010;DHT22;63564;46.840;18.336;2023-01-28T03:23:04;0.64;92.10
75010;DHT22;63564;46.840;18.336;2023-01-28T03:26:27;0.63;91.97
75010;DHT22;63564;46.840;18.336;2023-01-28T03:29:50;0.64;91.78
75010;DHT22;63564;46.840;18.336;2023-01-28T03:33:12;0.64;91.78
75010;DHT22;63564;46.840;18.336;2023-01-28T03:36:32;0.61;91.93
75010;DHT22;63564;46.840;18.336;2023-01-28T03:39:52;0.60;91.45
75010;DHT22;63564;46.840;18.336;2023-01-28T03:42:52;0.63;91.63
75010;DHT22;63564;46.840;18.336;2023-01-28T03:45:53;0.61;91.52
75010;DHT22;63564;46.840;18.336;2023-01-28T03:48:54;0.61;91.03
75010;DHT22;63564;46.840;18.336;2023-01-28T03:51:55;0.60;90.88
75010;DHT22;63564;46.840;18.336;2023-01-28T03:54:55;0.57;91.25
75010;DHT22;63564;46.840;18.336;2023-01-28T03:57:56;0.58;91.19
75010;DHT22;63564;46.840;18.336;2023-01-28T04:00:56;0.57;90.86
75010;DHT22;63564;46.840;18.336;2023-01-28T04:03:57;0.58;90.43
75010;DHT22;63564;46.840;18.336;2023-01-28T04:06:57;0.57;90.56
75010;DHT22;63564;46.840;18.336;2023-01-28T04:09:58;0.60;90.40
75010;DHT22;63564;46.840;18.336;2023-01-28T04:12:58;0.58;90.58
75010;DHT22;63564;46.840;18.336;2023-01-28T04:15:58;0.57;90.49
75010;DHT22;63564;46.840;18.336;2023-01-28T04:19:02;0.60;90.42
75010;DHT22;63564;46.840;18.336;2023-01-28T04:22:04;0.60;89.95
75010;DHT22;63564;46.840;18.336;2023-01-28T04:25:05;0.56;90.46
75010;DHT22;63564;46.840;18.336;2023-01-28T04:28:06;0.57;89.93
75010;DHT22;63564;46.840;18.336;2023-01-28T04:31:06;0.56;89.53
75010;DHT22;63564;46.840;18.336;2023-01-28T04:34:06;0.56;90.03
75010;DHT22;63564;46.840;18.336;2023-01-28T04:37:08;0.52;89.64
75010;DHT22;63564;46.840;18.336;2023-01-28T04:40:10;0.52;90.13
75010;DHT22;63564;46.840;18.336;2023-01-28T04:43:10;0.52;89.96
75010;DHT22;63564;46.840;18.336;2023-01-28T04:46:11;0.50;89.97
75010;DHT22;63564;46.840;18.336;2023-01-28T04:49:11;0.54;90.04
75010;DHT22;63564;46.840;18.336;2023-01-28T04:52:12;0.56;89.52
75010;DHT22;63564;46.840;18.336;2023-01-28T04:55:12;0.53;89.88
75010;DHT22;63564;46.840;18.336;2023-01-28T04:58:13;0.50;89.86
75010;DHT22;63564;46.840;18.336;2023-01-28T05:01:13;0.49;89.76
75010;DHT22;63564;46.840;18.336;2023-01-28T05:04:14;0.49;89.60
75010;DHT22;63564;46.840;18.336;2023-01-28T05:07:16;0.50;89.67
75010;DHT22;63564;46.840;18.336;2023-01-28T05:10:16;0.50;89.61
75010;DHT22;63564;46.840;18.336;2023-01-28T05:13:18;0.47;89.59
75010;DHT22;63564;46.840;18.336;2023-01-28T05:16:18;0.49;89.56
75010;DHT22;63564;46.840;18.336;2023-01-28T05:19:19;0.50;89.68
75010;DHT22;63564;46.840;18.336;2023-01-28T05:22:19;0.50;89.47
75010;DHT22;63564;46.840;18.336;2023-01-28T05:25:20;0.49;89.64
75010;DHT22;63564;46.840;18.336;2023-01-28T05:28:20;0.47;89.69
75010;DHT22;63564;46.840;18.336;2023-01-28T05:31:21;0.54;89.29
75010;DHT22;63564;46.840;18.336;2023-01-28T05:34:21;0.50;89.21
75010;DHT22;63564;46.840;18.336;2023-01-28T05:37:21;0.44;88.87
75010;DHT22;63564;46.840;18.336;2023-01-28T05:40:22;0.46;89.42
75010;DHT22;63564;46.840;18.336;2023-01-28T05:43:22;0.47;88.67
75010;DHT22;63564;46.840;18.336;2023-01-28T05:46:23;0.49;88.49
75010;DHT22;63564;46.840;18.336;2023-01-28T05:49:24;0.46;88.66
75010;DHT22;63564;46.840;18.336;2023-01-28T05:52:25;0.46;89.04
75010;DHT22;63564;46.840;18.336;2023-01-28T05:55:26;0.44;88.91
75010;DHT22;63564;46.840;18.336;2023-01-28T05:58:26;0.50;88.79
75010;DHT22;63564;46.840;18.336;2023-01-28T06:01:30;0.49;88.71
75010;DHT22;63564;46.840;18.336;2023-01-28T06:04:30;0.47;88.74
75010;DHT22;63564;46.840;18.336;2023-01-28T06:07:31;0.54;89.17
75010;DHT22;63564;46.840;18.336;2023-01-28T06:10:31;0.56;88.47
75010;DHT22;63564;46.840;18.336;2023-01-28T06:13:31;0.53;88.74
75010;DHT22;63564;46.840;18.336;2023-01-28T06:16:32;0.56;88.69
75010;DHT22;63564;46.840;18.336;2023-01-28T06:19:32;0.52;88.74
75010;DHT22;63564;46.840;18.336;2023-01-28T06:22:33;0.52;88.85
75010;DHT22;63564;46.840;18.336;2023-01-28T06:25:33;0.43;89.43
75010;DHT22;63564;46.840;18.336;2023-01-28T06:28:34;0.52;88.86
75010;DHT22;63564;46.840;18.336;2023-01-28T06:31:34;0.52;88.73
75010;DHT22;63564;46.840;18.336;2023-01-28T06:34:35;0.46;89.39
75010;DHT22;63564;46.840;18.336;2023-01-28T06:37:35;0.52;89.58
75010;DHT22;63564;46.840;18.336;2023-01-28T06:40:36;0.54;89.34
75010;DHT22;63564;46.840;18.336;2023-01-28T06:43:36;0.57;89.35
75010;DHT22;63564;46.840;18.336;2023-01-28T06:46:37;0.49;89.65
75010;DHT22;63564;46.840;18.336;2023-01-28T06:49:37;0.52;89.59
75010;DHT22;63564;46.840;18.336;2023-01-28T06:52:38;0.64;88.90
75010;DHT22;63564;46.840;18.336;2023-01-28T06:55:39;0.68;88.87
75010;DHT22;63564;46.840;18.336;2023-01-28T06:58:39;0.67;88.88
75010;DHT22;63564;46.840;18.336;2023-01-28T07:01:39;0.68;88.63
75010;DHT22;63564;46.840;18.336;2023-01-28T07:04:40;0.71;88.87
75010;DHT22;63564;46.840;18.336;2023-01-28T07:07:40;0.74;88.46
75010;DHT22;63564;46.840;18.336;2023-01-28T07:10:41;0.71;88.94
75010;DHT22;63564;46.840;18.336;2023-01-28T07:13:42;0.75;88.58
75010;DHT22;63564;46.840;18.336;2023-01-28T07:16:42;0.70;88.39
75010;DHT22;63564;46.840;18.336;2023-01-28T07:19:43;0.68;88.33
75010;DHT22;63564;46.840;18.336;2023-01-28T07:22:44;0.77;88.04
75010;DHT22;63564;46.840;18.336;2023-01-28T07:25:44;0.64;88.56
75010;DHT22;63564;46.840;18.336;2023-01-28T07:28:45;0.73;88.33
75010;DHT22;63564;46.840;18.336;2023-01-28T07:31:45;0.70;87.75
75010;DHT22;63564;46.840;18.336;2023-01-28T07:34:46;0.71;87.99
75010;DHT22;63564;46.840;18.336;2023-01-28T07:37:50;0.73;88.38
75010;DHT22;63564;46.840;18.336;2023-01-28T07:40:51;0.74;87.23
75010;DHT22;63564;46.840;18.336;2023-01-28T07:43:51;0.70;87.45
75010;DHT22;63564;46.840;18.336;2023-01-28T07:46:52;0.71;87.04
75010;DHT22;63564;46.840;18.336;2023-01-28T07:49:53;0.78;87.17
75010;DHT22;63564;46.840;18.336;2023-01-28T07:52:56;0.75;87.05
75010;DHT22;63564;46.840;18.336;2023-01-28T07:56:00;0.78;87.41
75010;DHT22;63564;46.840;18.336;2023-01-28T07:59:01;0.70;88.04
75010;DHT22;63564;46.840;18.336;2023-01-28T08:02:01;0.78;87.76
75010;DHT22;63564;46.840;18.336;2023-01-28T08:05:02;0.75;86.92
75010;DHT22;63564;46.840;18.336;2023-01-28T08:08:02;0.81;87.87
75010;DHT22;63564;46.840;18.336;2023-01-28T08:11:08;0.71;87.68
75010;DHT22;63564;46.840;18.336;2023-01-28T08:14:10;0.84;87.06
75010;DHT22;63564;46.840;18.336;2023-01-28T08:17:11;0.87;87.20
75010;DHT22;63564;46.840;18.336;2023-01-28T08:20:11;0.88;86.80
75010;DHT22;63564;46.840;18.336;2023-01-28T08:23:18;0.89;86.89
75010;DHT22;63564;46.840;18.336;2023-01-28T08:26:18;0.94;86.36
75010;DHT22;63564;46.840;18.336;2023-01-28T08:29:19;0.94;87.07
75010;DHT22;63564;46.840;18.336;2023-01-28T08:32:19;1.02;87.22
75010;DHT22;63564;46.840;18.336;2023-01-28T08:35:20;0.99;85.80
75010;DHT22;63564;46.840;18.336;2023-01-28T08:38:20;0.94;86.61
75010;DHT22;63564;46.840;18.336;2023-01-28T08:41:21;0.99;86.16
75010;DHT22;63564;46.840;18.336;2023-01-28T08:44:22;0.98;85.71
75010;DHT22;63564;46.840;18.336;2023-01-28T08:47:22;1.02;86.01
75010;DHT22;63564;46.840;18.336;2023-01-28T08:50:25;0.98;86.82
75010;DHT22;63564;46.840;18.336;2023-01-28T08:53:26;1.05;86.32
75010;DHT22;63564;46.840;18.336;2023-01-28T08:56:26;0.99;86.44
75010;DHT22;63564;46.840;18.336;2023-01-28T08:59:26;1.06;85.46
75010;DHT22;63564;46.840;18.336;2023-01-28T09:02:27;1.11;85.47
75010;DHT22;63564;46.840;18.336;2023-01-28T09:05:27;1.09;85.56
75010;DHT22;63564;46.840;18.336;2023-01-28T09:08:29;1.16;85.94
75010;DHT22;63564;46.840;18.336;2023-01-28T09:11:29;1.19;85.27
75010;DHT22;63564;46.840;18.336;2023-01-28T09:14:30;1.19;85.78
75010;DHT22;63564;46.840;18.336;2023-01-28T09:17:30;1.23;85.61
75010;DHT22;63564;46.840;18.336;2023-01-28T09:20:31;1.22;85.41
75010;DHT22;63564;46.840;18.336;2023-01-28T09:23:38;1.25;84.90
75010;DHT22;63564;46.840;18.336;2023-01-28T09:26:38;1.21;85.14
75010;DHT22;63564;46.840;18.336;2023-01-28T09:29:39;1.28;85.14
75010;DHT22;63564;46.840;18.336;2023-01-28T09:32:39;1.28;85.28
75010;DHT22;63564;46.840;18.336;2023-01-28T09:35:40;1.36;84.99
75010;DHT22;63564;46.840;18.336;2023-01-28T09:38:40;1.42;84.70
75010;DHT22;63564;46.840;18.336;2023-01-28T09:48:34;1.50;84.34
75010;DHT22;63564;46.840;18.336;2023-01-28T09:51:42;1.46;84.82
75010;DHT22;63564;46.840;18.336;2023-01-28T09:57:52;1.56;84.18
75010;DHT22;63564;46.840;18.336;2023-01-28T10:01:00;1.61;84.96
75010;DHT22;63564;46.840;18.336;2023-01-28T10:07:56;1.68;83.73
75010;DHT22;63564;46.840;18.336;2023-01-28T10:11:15;1.66;84.35
75010;DHT22;63564;46.840;18.336;2023-01-28T10:17:47;1.74;84.21
75010;DHT22;63564;46.840;18.336;2023-01-28T10:20:53;1.81;83.80
75010;DHT22;63564;46.840;18.336;2023-01-28T10:24:16;1.81;83.73
75010;DHT22;63564;46.840;18.336;2023-01-28T10:27:22;1.71;84.59
75010;DHT22;63564;46.840;18.336;2023-01-28T10:30:26;1.73;84.01
75010;DHT22;63564;46.840;18.336;2023-01-28T10:33:35;1.74;84.79
75010;DHT22;63564;46.840;18.336;2023-01-28T10:36:36;1.81;84.28
75010;DHT22;63564;46.840;18.336;2023-01-28T10:39:36;1.87;84.70
75010;DHT22;63564;46.840;18.336;2023-01-28T10:42:37;1.88;83.88
75010;DHT22;63564;46.840;18.336;2023-01-28T10:46:06;1.73;83.99
75010;DHT22;63564;46.840;18.336;2023-01-28T10:49:14;1.78;84.96
75010;DHT22;63564;46.840;18.336;2023-01-28T10:52:16;1.97;83.98
75010;DHT22;63564;46.840;18.336;2023-01-28T10:55:17;2.11;83.79
75010;DHT22;63564;46.840;18.336;2023-01-28T10:58:26;2.08;83.41
75010;DHT22;63564;46.840;18.336;2023-01-28T11:04:42;2.05;83.32
75010;DHT22;63564;46.840;18.336;2023-01-28T11:07:43;2.12;82.50
75010;DHT22;63564;46.840;18.336;2023-01-28T11:10:46;2.21;82.79
75010;DHT22;63564;46.840;18.336;2023-01-28T11:13:50;2.21;83.43
75010;DHT22;63564;46.840;18.336;2023-01-28T11:16:55;2.26;82.45
75010;DHT22;63564;46.840;18.336;2023-01-28T11:20:09;2.09;82.01
75010;DHT22;63564;46.840;18.336;2023-01-28T11:23:28;2.16;83.07
75010;DHT22;63564;46.840;18.336;2023-01-28T11:26:35;2.26;83.00
75010;DHT22;63564;46.840;18.336;2023-01-28T11:29:38;2.19;81.54
75010;DHT22;63564;46.840;18.336;2023-01-28T11:32:39;2.21;81.23
75010;DHT22;63564;46.840;18.336;2023-01-28T11:35:39;2.30;81.75
75010;DHT22;63564;46.840;18.336;2023-01-28T11:38:57;2.35;81.74
75010;DHT22;63564;46.840;18.336;2023-01-28T11:42:10;2.40;81.43
75010;DHT22;63564;46.840;18.336;2023-01-28T11:45:38;2.43;82.14
75010;DHT22;63564;46.840;18.336;2023-01-28T11:52:02;2.53;80.03
75010;DHT22;63564;46.840;18.336;2023-01-28T11:58:34;2.64;80.90
75010;DHT22;63564;46.840;18.336;2023-01-28T12:08:16;2.84;80.30
75010;DHT22;63564;46.840;18.336;2023-01-28T12:25:30;2.81;80.07
75010;DHT22;63564;46.840;18.336;2023-01-28T12:29:00;2.87;80.90
75010;DHT22;63564;46.840;18.336;2023-01-28T12:35:56;2.70;79.83
75010;DHT22;63564;46.840;18.336;2023-01-28T12:45:44;3.04;79.93
75010;DHT22;63564;46.840;18.336;2023-01-28T12:48:53;3.01;79.37
75010;DHT22;63564;46.840;18.336;2023-01-28T12:51:59;3.00;79.32
75010;DHT22;63564;46.840;18.336;2023-01-28T12:55:17;2.93;80.00
75010;DHT22;63564;46.840;18.336;2023-01-28T12:59:10;2.91;79.89
75010;DHT22;63564;46.840;18.336;2023-01-28T13:05:15;2.95;80.75
75010;DHT22;63564;46.840;18.336;2023-01-28T13:08:22;2.93;79.82
75010;DHT22;63564;46.840;18.336;2023-01-28T13:11:33;3.04;79.57
75010;DHT22;63564;46.840;18.336;2023-01-28T13:14:34;3.15;79.98
75010;DHT22;63564;46.840;18.336;2023-01-28T13:17:35;3.09;79.12
75010;DHT22;63564;46.840;18.336;2023-01-28T13:20:44;3.18;79.99
75010;DHT22;63564;46.840;18.336;2023-01-28T13:23:47;3.25;78.74
75010;DHT22;63564;46.840;18.336;2023-01-28T13:30:21;3.32;79.40
75010;DHT22;63564;46.840;18.336;2023-01-28T13:33:29;3.18;79.09
75010;DHT22;63564;46.840;18.336;2023-01-28T13:36:32;3.01;79.81
75010;DHT22;63564;46.840;18.336;2023-01-28T13:39:34;2.98;80.67
75010;DHT22;63564;46.840;18.336;2023-01-28T13:42:35;3.02;80.65
75010;DHT22;63564;46.840;18.336;2023-01-28T13:45:36;3.00;80.07
75010;DHT22;63564;46.840;18.336;2023-01-28T13:48:51;2.97;79.97
75010;DHT22;63564;46.840;18.336;2023-01-28T13:52:19;2.84;80.92
75010;DHT22;63564;46.840;18.336;2023-01-28T13:55:26;2.76;80.67
75010;DHT22;63564;46.840;18.336;2023-01-28T14:12:29;2.70;80.78
75010;DHT22;63564;46.840;18.336;2023-01-28T14:18:47;2.56;80.97
75010;DHT22;63564;46.840;18.336;2023-01-28T14:21:48;2.45;81.58
75010;DHT22;63564;46.840;18.336;2023-01-28T14:24:48;2.47;82.10
75010;DHT22;63564;46.840;18.336;2023-01-28T14:27:51;2.39;83.08
75010;DHT22;63564;46.840;18.336;2023-01-28T14:30:56;2.30;82.67
75010;DHT22;63564;46.840;18.336;2023-01-28T14:34:27;2.28;82.56
75010;DHT22;63564;46.840;18.336;2023-01-28T14:37:30;2.18;83.58
75010;DHT22;63564;46.840;18.336;2023-01-28T14:40:38;2.14;83.97
75010;DHT22;63564;46.840;18.336;2023-01-28T14:43:39;2.04;84.01
75010;DHT22;63564;46.840;18.336;2023-01-28T14:46:49;1.98;84.56
75010;DHT22;63564;46.840;18.336;2023-01-28T14:50:13;1.95;85.16
75010;DHT22;63564;46.840;18.336;2023-01-28T14:53:23;1.89;85.87
75010;DHT22;63564;46.840;18.336;2023-01-28T15:00:03;1.98;85.09
75010;DHT22;63564;46.840;18.336;2023-01-28T15:03:10;1.97;84.96
75010;DHT22;63564;46.840;18.336;2023-01-28T15:06:18;1.98;85.06
75010;DHT22;63564;46.840;18.336;2023-01-28T15:09:23;1.87;85.20
75010;DHT22;63564;46.840;18.336;2023-01-28T15:12:23;1.75;85.54
75010;DHT22;63564;46.840;18.336;2023-01-28T15:15:38;1.77;85.75
75010;DHT22;63564;46.840;18.336;2023-01-28T15:18:42;1.67;85.93
75010;DHT22;63564;46.840;18.336;2023-01-28T15:21:44;1.63;85.82
75010;DHT22;63564;46.840;18.336;2023-01-28T15:24:44;1.53;86.55
75010;DHT22;63564;46.840;18.336;2023-01-28T15:27:45;1.44;86.47
75010;DHT22;63564;46.840;18.336;2023-01-28T15:30:46;1.43;86.96
75010;DHT22;63564;46.840;18.336;2023-01-28T15:34:11;1.38;87.22
75010;DHT22;63564;46.840;18.336;2023-01-28T15:37:18;1.33;87.77
75010;DHT22;63564;46.840;18.336;2023-01-28T15:40:20;1.36;87.57
75010;DHT22;63564;46.840;18.336;2023-01-28T15:43:24;1.38;87.02
75010;DHT22;63564;46.840;18.336;2023-01-28T15:46:25;1.30;87.80
75010;DHT22;63564;46.840;18.336;2023-01-28T15:49:30;1.32;87.72
75010;DHT22;63564;46.840;18.336;2023-01-28T15:52:38;1.29;87.63
75010;DHT22;63564;46.840;18.336;2023-01-28T15:55:42;1.25;87.77
75010;DHT22;63564;46.840;18.336;2023-01-28T15:58:43;1.19;88.00
75010;DHT22;63564;46.840;18.336;2023-01-28T16:01:45;1.25;88.09
75010;DHT22;63564;46.840;18.336;2023-01-28T16:05:05;1.25;88.30
75010;DHT22;63564;46.840;18.336;2023-01-28T16:08:19;1.19;88.42
75010;DHT22;63564;46.840;18.336;2023-01-28T16:11:37;1.16;88.65
75010;DHT22;63564;46.840;18.336;2023-01-28T16:14:55;1.13;89.10
75010;DHT22;63564;46.840;18.336;2023-01-28T16:17:56;1.09;89.09
75010;DHT22;63564;46.840;18.336;2023-01-28T16:20:58;1.06;89.17
75010;DHT22;63564;46.840;18.336;2023-01-28T16:24:02;1.03;89.63
75010;DHT22;63564;46.840;18.336;2023-01-28T16:27:22;1.06;89.55
75010;DHT22;63564;46.840;18.336;2023-01-28T16:30:23;1.08;89.20
75010;DHT22;63564;46.840;18.336;2023-01-28T16:33:25;1.06;89.08
75010;DHT22;63564;46.840;18.336;2023-01-28T16:36:25;1.09;88.93
75010;DHT22;63564;46.840;18.336;2023-01-28T16:39:26;1.09;89.10
75010;DHT22;63564;46.840;18.336;2023-01-28T16:42:26;1.11;89.36
75010;DHT22;63564;46.840;18.336;2023-01-28T16:45:27;1.11;89.42
75010;DHT22;63564;46.840;18.336;2023-01-28T16:48:28;1.08;89.63
75010;DHT22;63564;46.840;18.336;2023-01-28T16:51:30;1.12;88.90
75010;DHT22;63564;46.840;18.336;2023-01-28T16:54:32;1.09;89.18
75010;DHT22;63564;46.840;18.336;2023-01-28T16:57:34;1.06;89.75
75010;DHT22;63564;46.840;18.336;2023-01-28T17:00:35;1.08;89.59
75010;DHT22;63564;46.840;18.336;2023-01-28T17:03:37;1.09;89.08
75010;DHT22;63564;46.840;18.336;2023-01-28T17:06:39;1.08;89.30
75010;DHT22;63564;46.840;18.336;2023-01-28T17:09:41;1.12;88.84
75010;DHT22;63564;46.840;18.336;2023-01-28T17:12:43;1.12;88.99
75010;DHT22;63564;46.840;18.336;2023-01-28T17:15:43;1.18;88.99
75010;DHT22;63564;46.840;18.336;2023-01-28T17:18:49;1.13;88.99
75010;DHT22;63564;46.840;18.336;2023-01-28T17:21:49;1.19;88.79
75010;DHT22;63564;46.840;18.336;2023-01-28T17:24:50;1.21;88.78
75010;DHT22;63564;46.840;18.336;2023-01-28T17:27:50;1.19;89.02
75010;DHT22;63564;46.840;18.336;2023-01-28T17:30:51;1.22;89.28
75010;DHT22;63564;46.840;18.336;2023-01-28T17:33:53;1.26;88.87
75010;DHT22;63564;46.840;18.336;2023-01-28T17:36:54;1.26;88.81
75010;DHT22;63564;46.840;18.336;2023-01-28T17:39:54;1.23;88.79
75010;DHT22;63564;46.840;18.336;2023-01-28T17:42:55;1.25;88.90
75010;DHT22;63564;46.840;18.336;2023-01-28T17:45:55;1.26;89.07
75010;DHT22;63564;46.840;18.336;2023-01-28T17:48:56;1.25;89.12
75010;DHT22;63564;46.840;18.336;2023-01-28T17:51:57;1.25;88.83
75010;DHT22;63564;46.840;18.336;2023-01-28T17:54:57;1.30;89.44
75010;DHT22;63564;46.840;18.336;2023-01-28T17:57:58;1.26;89.20
75010;DHT22;63564;46.840;18.336;2023-01-28T18:00:58;1.30;89.08
75010;DHT22;63564;46.840;18.336;2023-01-28T18:04:00;1.30;88.43
75010;DHT22;63564;46.840;18.336;2023-01-28T18:07:00;1.29;88.76
75010;DHT22;63564;46.840;18.336;2023-01-28T18:10:01;1.30;88.23
75010;DHT22;63564;46.840;18.336;2023-01-28T18:13:02;1.32;88.33
75010;DHT22;63564;46.840;18.336;2023-01-28T18:16:03;1.29;88.58
75010;DHT22;63564;46.840;18.336;2023-01-28T18:19:05;1.28;88.21
75010;DHT22;63564;46.840;18.336;2023-01-28T18:22:08;1.26;88.17
75010;DHT22;63564;46.840;18.336;2023-01-28T18:25:14;1.26;87.82
75010;DHT22;63564;46.840;18.336;2023-01-28T18:28:14;1.28;87.50
75010;DHT22;63564;46.840;18.336;2023-01-28T18:31:15;1.26;88.05
75010;DHT22;63564;46.840;18.336;2023-01-28T18:34:17;1.22;87.78
75010;DHT22;63564;46.840;18.336;2023-01-28T18:37:17;1.32;87.80
75010;DHT22;63564;46.840;18.336;2023-01-28T18:40:18;1.26;87.87
75010;DHT22;63564;46.840;18.336;2023-01-28T18:43:22;1.22;87.33
75010;DHT22;63564;46.840;18.336;2023-01-28T18:46:22;1.23;87.31
75010;DHT22;63564;46.840;18.336;2023-01-28T18:49:23;1.25;87.39
75010;DHT22;63564;46.840;18.336;2023-01-28T18:52:23;1.25;87.14
75010;DHT22;63564;46.840;18.336;2023-01-28T18:55:24;1.23;87.31
75010;DHT22;63564;46.840;18.336;2023-01-28T18:58:25;1.22;87.93
75010;DHT22;63564;46.840;18.336;2023-01-28T19:01:26;1.21;88.25
75010;DHT22;63564;46.840;18.336;2023-01-28T19:04:28;1.22;88.13
75010;DHT22;63564;46.840;18.336;2023-01-28T19:07:29;1.13;88.70
75010;DHT22;63564;46.840;18.336;2023-01-28T19:10:31;1.15;88.78
75010;DHT22;63564;46.840;18.336;2023-01-28T19:13:31;1.13;88.99
75010;DHT22;63564;46.840;18.336;2023-01-28T19:16:32;1.11;89.41
75010;DHT22;63564;46.840;18.336;2023-01-28T19:19:36;1.11;88.88
75010;DHT22;63564;46.840;18.336;2023-01-28T19:22:36;1.13;88.97
75010;DHT22;63564;46.840;18.336;2023-01-28T19:25:38;1.19;88.64
75010;DHT22;63564;46.840;18.336;2023-01-28T19:28:42;1.09;89.18
75010;DHT22;63564;46.840;18.336;2023-01-28T19:31:42;1.11;89.21
75010;DHT22;63564;46.840;18.336;2023-01-28T19:34:43;1.18;89.03
75010;DHT22;63564;46.840;18.336;2023-01-28T19:37:44;1.15;88.66
75010;DHT22;63564;46.840;18.336;2023-01-28T19:40:45;1.15;88.78
75010;DHT22;63564;46.840;18.336;2023-01-28T19:43:46;1.06;88.93
75010;DHT22;63564;46.840;18.336;2023-01-28T19:46:47;1.11;89.08
75010;DHT22;63564;46.840;18.336;2023-01-28T19:49:48;1.13;88.42
75010;DHT22;63564;46.840;18.336;2023-01-28T19:52:48;1.13;88.02
75010;DHT22;63564;46.840;18.336;2023-01-28T19:55:49;1.12;88.81
75010;DHT22;63564;46.840;18.336;2023-01-28T19:58:52;1.13;88.30
75010;DHT22;63564;46.840;18.336;2023-01-28T20:01:53;1.09;88.25
75010;DHT22;63564;46.840;18.336;2023-01-28T20:04:53;1.09;88.61
75010;DHT22;63564;46.840;18.336;2023-01-28T20:07:54;1.09;87.99
75010;DHT22;63564;46.840;18.336;2023-01-28T20:11:06;1.09;88.12
75010;DHT22;63564;46.840;18.336;2023-01-28T20:14:06;0.92;88.70
75010;DHT22;63564;46.840;18.336;2023-01-28T20:17:10;1.02;87.93
75010;DHT22;63564;46.840;18.336;2023-01-28T20:20:11;1.03;88.05
75010;DHT22;63564;46.840;18.336;2023-01-28T20:23:12;0.99;88.15
75010;DHT22;63564;46.840;18.336;2023-01-28T20:26:13;1.05;88.14
75010;DHT22;63564;46.840;18.336;2023-01-28T20:29:15;1.03;87.44
75010;DHT22;63564;46.840;18.336;2023-01-28T20:32:21;1.01;87.66
75010;DHT22;63564;46.840;18.336;2023-01-28T20:35:22;1.06;86.78
75010;DHT22;63564;46.840;18.336;2023-01-28T20:38:23;1.13;87.08
75010;DHT22;63564;46.840;18.336;2023-01-28T20:41:25;1.05;87.39
75010;DHT22;63564;46.840;18.336;2023-01-28T20:44:26;1.05;86.92
75010;DHT22;63564;46.840;18.336;2023-01-28T20:47:31;1.09;87.12
75010;DHT22;63564;46.840;18.336;2023-01-28T20:50:33;1.02;87.21
75010;DHT22;63564;46.840;18.336;2023-01-28T20:53:34;1.06;86.97
75010;DHT22;63564;46.840;18.336;2023-01-28T20:56:34;1.08;87.02
75010;DHT22;63564;46.840;18.336;2023-01-28T20:59:35;1.03;87.41
75010;DHT22;63564;46.840;18.336;2023-01-28T21:02:38;1.03;87.44